Rockledge, Alabama
Current Conditions -  °F | °C
As of 10:55 PM on Monday 20 Oct 2014 (Local Time) from KGAD Reporting Station
Clear Clear  
Wind Chill: 10°   Ceiling: Unl
Heat Index: 10°   Visibility: 9mi
Dew Point:   Wind: 0mph
Humidity: 82%   Direction: NA
Pressure: 30.04"   Gusts: NA
Location:  34.0771°N, 86.0689°W
Report Text: KGAD 210355Z 00000KT 9SM CLR 10/07 A3004 RMK AO1
Loading
Personal Weather Stations






























Interactive Weather Map
Tropical Storm Tracking
New forecast layout! Learn more

10-Day Weather Forecast

Advertisements
Track Severe Weather on mobile